createdAt,value
2018-02-22T00:01:41.763Z,37.42
2018-02-22T00:04:11.080Z,38.83
2018-02-22T00:06:39.705Z,38.83
2018-02-22T00:09:09.303Z,40.10
2018-02-22T00:11:38.895Z,39.83
2018-02-22T00:14:07.905Z,40.65
2018-02-22T00:16:36.157Z,35.72
2018-02-22T00:19:04.592Z,34.13
2018-02-22T00:21:33.216Z,32.20
2018-02-22T00:24:02.212Z,38.17
2018-02-22T00:26:31.148Z,43.30
2018-02-22T00:29:00.727Z,35.72
2018-02-22T00:31:28.840Z,40.92
2018-02-22T00:33:58.608Z,37.83
2018-02-22T00:36:26.729Z,41.78
2018-02-22T00:38:55.369Z,39.05
2018-02-22T00:41:24.342Z,36.22
2018-02-22T00:43:53.336Z,37.67
2018-02-22T00:46:21.560Z,37.72
2018-02-22T00:48:50.064Z,35.58
2018-02-22T00:51:19.428Z,38.05
2018-02-22T00:53:47.655Z,43.00
2018-02-22T00:56:16.404Z,33.72
2018-02-22T00:58:45.760Z,36.97
2018-02-22T01:01:14.874Z,43.28
2018-02-22T01:03:43.535Z,38.80
2018-02-22T01:06:12.171Z,35.83
2018-02-22T01:08:41.776Z,36.97
2018-02-22T01:11:11.141Z,40.10
2018-02-22T01:13:40.903Z,41.58
2018-02-22T01:16:09.141Z,35.33
2018-02-22T01:18:37.971Z,34.95
2018-02-22T01:21:06.978Z,38.17
2018-02-22T01:23:36.580Z,35.40
2018-02-22T01:26:06.177Z,40.30
2018-02-22T01:28:35.192Z,35.10
2018-02-22T01:31:03.415Z,41.37
2018-02-22T01:33:32.824Z,35.42
2018-02-22T01:36:02.404Z,38.03
2018-02-22T01:38:30.507Z,40.38
2018-02-22T01:41:00.279Z,38.63
2018-02-22T01:43:30.025Z,39.83
2018-02-22T01:45:59.024Z,36.70
2018-02-22T01:48:29.085Z,39.33
2018-02-22T01:50:58.447Z,38.80
2018-02-22T01:53:26.684Z,36.35
2018-02-22T01:55:55.570Z,36.35
2018-02-22T01:58:24.798Z,35.15
2018-02-22T02:00:53.032Z,37.42
2018-02-22T02:03:21.661Z,39.13
2018-02-22T02:05:51.246Z,37.42
2018-02-22T02:08:19.352Z,41.88
2018-02-22T02:10:47.732Z,36.17
2018-02-22T02:13:15.961Z,34.67
2018-02-22T02:15:44.285Z,35.85
2018-02-22T02:20:48.892Z,37.35
2018-02-22T02:23:17.511Z,36.92
2018-02-22T02:25:46.507Z,38.65
2018-02-22T02:28:16.880Z,38.40
2018-02-22T02:30:46.128Z,33.40
2018-02-22T02:33:15.116Z,36.47
2018-02-22T02:35:45.108Z,34.25
2018-02-22T02:38:13.340Z,34.08
2018-02-22T02:40:42.705Z,39.90
2018-02-22T02:43:11.201Z,34.97
2018-02-22T02:45:40.583Z,37.63
2018-02-22T02:48:08.811Z,36.67
2018-02-22T02:53:12.257Z,38.20
2018-02-22T02:55:42.000Z,38.83
2018-02-22T02:58:10.242Z,37.75
2018-02-22T03:03:13.852Z,39.55
2018-02-22T03:05:42.102Z,40.20
2018-02-22T03:08:11.849Z,36.17
2018-02-22T03:10:42.556Z,40.30
2018-02-22T03:13:10.668Z,36.15
2018-02-22T03:15:38.918Z,34.95
2018-02-22T03:18:07.502Z,36.97
2018-02-22T03:20:36.148Z,35.40
2018-02-22T03:23:04.380Z,34.08
2018-02-22T03:25:33.111Z,36.65
2018-02-22T03:28:02.476Z,36.45
2018-02-22T03:30:30.705Z,30.77
2018-02-22T03:32:59.152Z,34.97
2018-02-22T03:35:28.888Z,32.80
2018-02-22T03:37:57.884Z,37.08
2018-02-22T03:40:26.275Z,33.88
2018-02-22T03:42:55.284Z,29.15
2018-02-22T03:45:23.513Z,36.67
2018-02-22T03:47:55.020Z,34.92
2018-02-22T03:50:23.648Z,31.40
2018-02-22T03:52:51.873Z,30.20
2018-02-22T03:55:20.473Z,33.97
2018-02-22T03:57:48.703Z,36.53
2018-02-22T04:00:16.933Z,38.03
2018-02-22T04:02:47.368Z,29.98
2018-02-22T04:05:16.979Z,35.80
2018-02-22T04:07:45.212Z,30.75
2018-02-22T04:10:15.576Z,31.55
2018-02-22T04:12:44.811Z,31.80
2018-02-22T04:15:13.039Z,35.92
2018-02-22T04:17:42.432Z,31.67
2018-02-22T04:20:11.056Z,35.53
2018-02-22T04:22:39.308Z,35.05
2018-02-22T04:25:10.164Z,33.97
2018-02-22T04:27:39.926Z,33.33
2018-02-22T04:30:08.148Z,33.00
2018-02-22T04:32:36.603Z,31.90
2018-02-22T04:35:06.351Z,31.20
2018-02-22T04:37:34.572Z,34.22
2018-02-22T04:40:03.125Z,35.30
2018-02-22T04:42:32.120Z,30.70
2018-02-22T04:45:00.343Z,33.67
2018-02-22T04:47:28.905Z,32.10
2018-02-22T04:49:58.277Z,34.97
2018-02-22T04:52:26.908Z,29.95
2018-02-22T04:54:55.453Z,32.10
2018-02-22T04:57:24.824Z,33.83
2018-02-22T04:59:53.056Z,35.95
2018-02-22T05:02:21.617Z,34.03
2018-02-22T05:04:51.494Z,30.52
2018-02-22T05:07:19.600Z,28.90
2018-02-22T05:09:47.967Z,30.15
2018-02-22T05:12:16.192Z,33.00
2018-02-22T05:14:45.772Z,30.27
2018-02-22T05:17:15.503Z,32.60
2018-02-22T05:19:44.376Z,33.58
2018-02-22T05:22:12.604Z,30.70
2018-02-22T05:24:42.756Z,29.08
2018-02-22T05:27:12.356Z,29.05
2018-02-22T05:29:40.467Z,34.58
2018-02-22T05:32:08.988Z,31.87
2018-02-22T05:34:38.356Z,31.20
2018-02-22T05:37:06.601Z,31.95
2018-02-22T05:39:35.244Z,32.20
2018-02-22T05:42:03.476Z,34.13
2018-02-22T05:44:33.069Z,29.02
2018-02-22T05:47:02.924Z,30.40
2018-02-22T05:49:33.280Z,31.45
2018-02-22T05:52:01.540Z,31.45
2018-02-22T05:54:31.608Z,30.45
2018-02-22T05:56:59.852Z,30.27
2018-02-22T05:59:28.068Z,35.15
2018-02-22T06:01:56.704Z,36.17
2018-02-22T06:04:25.695Z,33.90
2018-02-22T06:06:55.027Z,31.80
2018-02-22T06:09:24.385Z,31.25
2018-02-22T06:11:52.612Z,33.75
2018-02-22T06:14:20.864Z,32.50
2018-02-22T06:16:50.529Z,31.20
2018-02-22T06:19:18.764Z,30.75
2018-02-22T06:21:48.339Z,30.20
2018-02-22T06:24:16.712Z,29.10
2018-02-22T06:26:44.936Z,30.48
2018-02-22T06:29:14.672Z,34.95
2018-02-22T06:31:43.188Z,32.58
2018-02-22T06:34:12.916Z,30.55
2018-02-22T06:36:41.908Z,30.20
2018-02-22T06:39:11.942Z,31.42
2018-02-22T06:41:40.164Z,28.48
2018-02-22T06:44:08.387Z,33.03
2018-02-22T06:46:38.024Z,34.72
2018-02-22T06:49:07.764Z,33.47
2018-02-22T06:51:36.774Z,32.15
2018-02-22T06:54:06.129Z,34.70
2018-02-22T06:56:34.365Z,32.08
2018-02-22T06:59:02.603Z,29.83
2018-02-22T07:01:32.575Z,33.03
2018-02-22T07:04:00.808Z,35.45
2018-02-22T07:06:29.435Z,33.33
2018-02-22T07:08:59.604Z,28.48
2018-02-22T07:11:28.595Z,39.78
2018-02-22T07:13:56.831Z,35.38
2018-02-22T07:16:25.736Z,32.25
2018-02-22T07:18:55.104Z,32.40
2018-02-22T07:21:23.336Z,27.98
2018-02-22T07:23:53.624Z,33.47
2018-02-22T07:26:21.856Z,27.83
2018-02-22T07:28:50.109Z,43.63
2018-02-22T07:31:18.624Z,31.42
2018-02-22T07:33:47.621Z,40.78
2018-02-22T07:36:15.849Z,33.15
2018-02-22T07:38:46.129Z,33.22
2018-02-22T07:41:14.236Z,32.58
2018-02-22T07:43:42.460Z,32.05
2018-02-22T07:51:18.980Z,32.40
2018-02-22T07:53:47.207Z,26.42
2018-02-22T07:56:15.432Z,28.62
2018-02-22T07:58:45.104Z,26.80
2018-02-22T08:01:13.729Z,33.25
2018-02-22T08:03:41.961Z,29.98
2018-02-22T08:06:11.300Z,27.95
2018-02-22T08:08:39.532Z,29.75
2018-02-22T08:11:09.630Z,34.35
2018-02-22T08:13:39.176Z,34.58
2018-02-22T08:16:07.427Z,31.65
2018-02-22T08:18:36.432Z,29.42
2018-02-22T08:21:06.608Z,28.48
2018-02-22T08:23:34.851Z,27.65
2018-02-22T08:26:03.864Z,27.07
2018-02-22T08:28:33.041Z,23.93
2018-02-22T08:31:02.629Z,30.10
2018-02-22T08:33:30.739Z,20.60
2018-02-22T08:35:59.283Z,26.30
2018-02-22T08:38:28.652Z,23.90
2018-02-22T08:40:56.888Z,21.77
2018-02-22T08:43:27.790Z,25.77
2018-02-22T08:45:55.896Z,24.10
2018-02-22T08:48:24.900Z,26.40
2018-02-22T08:50:53.383Z,23.67
2018-02-22T08:53:22.963Z,21.97
2018-02-22T08:55:51.471Z,22.87
2018-02-22T08:58:19.934Z,21.77
2018-02-22T09:00:48.163Z,21.17
2018-02-22T09:03:16.396Z,25.07
2018-02-22T09:05:45.660Z,20.07
2018-02-22T09:08:13.892Z,20.77
2018-02-22T09:10:42.125Z,22.63
2018-02-22T09:13:11.312Z,21.83
2018-02-22T09:15:40.286Z,23.70
2018-02-22T09:18:08.512Z,22.20
2018-02-22T09:20:37.331Z,21.63
2018-02-22T09:23:05.571Z,21.20
2018-02-22T09:25:34.581Z,20.37
2018-02-22T09:28:03.272Z,19.73
2018-02-22T09:30:31.512Z,21.67
2018-02-22T09:32:59.757Z,19.77
2018-02-22T09:35:28.352Z,19.93
2018-02-22T09:37:58.092Z,20.37
2018-02-22T09:40:27.343Z,21.77
2018-02-22T09:42:56.028Z,20.50
2018-02-22T09:45:25.759Z,20.30
2018-02-22T09:47:54.760Z,18.13
2018-02-22T09:50:23.292Z,20.93
2018-02-22T09:52:51.926Z,19.07
2018-02-22T09:55:20.173Z,20.97
2018-02-22T09:57:48.600Z,19.17
2018-02-22T10:00:18.340Z,20.83
2018-02-22T10:02:47.343Z,20.07
2018-02-22T10:05:16.996Z,19.10
2018-02-22T10:07:46.732Z,19.73
2018-02-22T10:10:14.964Z,18.93
2018-02-22T10:12:43.460Z,17.90
2018-02-22T10:15:12.185Z,20.43
2018-02-22T10:17:41.184Z,19.33
2018-02-22T10:20:09.600Z,17.93
2018-02-22T10:22:37.832Z,18.20
2018-02-22T10:25:07.420Z,19.10
2018-02-22T10:27:36.458Z,18.67
2018-02-22T10:30:05.456Z,18.37
2018-02-22T10:32:33.704Z,18.47
2018-02-22T10:35:03.500Z,18.70
2018-02-22T10:37:32.142Z,18.00
2018-02-22T10:40:01.898Z,17.47
2018-02-22T10:42:31.573Z,17.93
2018-02-22T10:45:00.210Z,16.80
2018-02-22T10:47:28.449Z,16.67
2018-02-22T10:52:31.141Z,16.00
2018-02-22T10:54:59.370Z,17.27
2018-02-22T10:57:27.605Z,16.27
2018-02-22T10:59:57.252Z,16.00
2018-02-22T11:02:32.585Z,15.40
2018-02-22T11:07:36.112Z,18.70
2018-02-22T11:10:04.368Z,16.97
2018-02-22T11:12:33.977Z,14.97
2018-02-22T11:15:04.302Z,15.70
2018-02-22T11:17:33.998Z,16.23
2018-02-22T11:20:03.472Z,16.73
2018-02-22T11:22:32.674Z,15.40
2018-02-22T11:25:02.259Z,17.23
2018-02-22T11:27:30.368Z,16.10
2018-02-22T11:30:05.552Z,16.67
2018-02-22T11:32:34.553Z,16.70
2018-02-22T11:35:04.131Z,16.77
2018-02-22T11:37:33.138Z,16.13
2018-02-22T11:40:01.376Z,14.90
2018-02-22T11:42:29.661Z,14.40
2018-02-22T11:44:58.984Z,15.27
2018-02-22T11:47:27.228Z,13.27
2018-02-22T11:49:55.852Z,16.90
2018-02-22T11:55:00.571Z,13.87
2018-02-22T11:57:29.580Z,14.30
2018-02-22T11:59:58.590Z,20.60
2018-02-22T12:02:27.939Z,13.40
2018-02-22T12:04:56.172Z,15.70
2018-02-22T12:07:24.404Z,16.23
2018-02-22T12:09:53.147Z,13.67
2018-02-22T12:12:22.148Z,13.23
2018-02-22T12:14:50.384Z,12.33
2018-02-22T12:17:19.643Z,13.37
2018-02-22T12:19:48.956Z,12.97
2018-02-22T12:22:17.197Z,12.60
2018-02-22T12:24:45.932Z,17.03
2018-02-22T12:27:14.932Z,10.20
2018-02-22T12:29:43.171Z,11.57
2018-02-22T12:32:11.982Z,11.87
2018-02-22T12:34:41.578Z,11.33
2018-02-22T12:37:11.056Z,11.23
2018-02-22T12:39:43.240Z,10.77
2018-02-22T12:42:11.475Z,10.63
2018-02-22T12:44:39.732Z,11.47
2018-02-22T12:47:08.544Z,11.90
2018-02-22T12:49:36.771Z,10.93
2018-02-22T12:52:05.764Z,10.70
2018-02-22T12:54:34.369Z,20.07
2018-02-22T12:57:04.102Z,10.23
2018-02-22T12:59:33.088Z,9.53
2018-02-22T13:02:01.477Z,11.37
2018-02-22T13:04:30.472Z,9.50
2018-02-22T13:06:58.705Z,7.70
2018-02-22T13:09:27.162Z,7.83
2018-02-22T13:11:55.383Z,8.03
2018-02-22T13:14:23.610Z,8.60
2018-02-22T13:16:53.340Z,7.37
2018-02-22T13:19:22.907Z,7.77
2018-02-22T13:21:52.540Z,7.40
2018-02-22T13:24:21.777Z,7.63
2018-02-22T13:26:51.508Z,7.33
2018-02-22T13:29:20.499Z,8.60
2018-02-22T13:31:50.777Z,8.70
2018-02-22T13:34:35.344Z,7.80
2018-02-22T13:40:06.861Z,8.50
2018-02-22T13:42:36.097Z,7.90
2018-02-22T13:45:16.224Z,8.10
2018-02-22T13:47:45.020Z,6.63
2018-02-22T13:50:26.738Z,7.57
2018-02-22T13:52:56.056Z,11.23
2018-02-22T13:55:24.705Z,7.60
2018-02-22T13:57:52.929Z,7.57
2018-02-22T14:00:34.003Z,8.73
2018-02-22T14:03:03.004Z,7.30
2018-02-22T14:05:31.220Z,8.70
2018-02-22T14:07:59.664Z,9.10
2018-02-22T14:10:27.889Z,8.13
2018-02-22T14:12:57.617Z,8.00
2018-02-22T14:15:26.863Z,7.93
2018-02-22T14:17:55.856Z,7.60
2018-02-22T14:20:24.080Z,9.00
2018-02-22T14:22:54.794Z,11.10
2018-02-22T14:25:22.888Z,9.43
2018-02-22T14:27:51.107Z,8.30
2018-02-22T14:30:22.404Z,10.00
2018-02-22T14:32:51.399Z,10.17
2018-02-22T14:35:19.637Z,8.47
2018-02-22T14:37:49.703Z,9.37
2018-02-22T14:40:19.255Z,15.40
2018-02-22T14:42:47.377Z,10.73
2018-02-22T14:45:16.151Z,11.07
2018-02-22T14:47:45.896Z,10.90
2018-02-22T14:50:14.136Z,9.40
2018-02-22T14:52:42.568Z,10.73
2018-02-22T14:55:12.317Z,14.30
2018-02-22T14:57:41.948Z,11.57
2018-02-22T15:00:11.784Z,14.80
2018-02-22T15:02:41.255Z,9.13
2018-02-22T15:05:10.878Z,12.50
2018-02-22T15:07:40.198Z,11.13
2018-02-22T15:10:08.401Z,9.30
2018-02-22T15:12:36.619Z,9.67
2018-02-22T15:15:05.085Z,10.33
2018-02-22T15:17:34.458Z,12.63
2018-02-22T15:20:02.681Z,10.70
2018-02-22T15:22:32.036Z,13.07
2018-02-22T15:25:01.076Z,11.17
2018-02-22T15:27:29.321Z,12.17
2018-02-22T15:29:59.820Z,11.33
2018-02-22T15:32:28.088Z,11.50
2018-02-22T15:34:57.693Z,13.23
2018-02-22T15:37:26.331Z,12.23
2018-02-22T15:39:55.703Z,11.63
2018-02-22T15:42:24.700Z,11.57
2018-02-22T15:44:54.112Z,15.83
2018-02-22T15:47:23.849Z,10.20
2018-02-22T15:49:52.832Z,9.93
2018-02-22T15:52:21.596Z,13.60
2018-02-22T15:54:50.212Z,11.67
2018-02-22T15:57:18.473Z,11.47
2018-02-22T15:59:48.199Z,13.43
2018-02-22T16:02:16.320Z,16.03
2018-02-22T16:04:45.336Z,13.53
2018-02-22T16:07:15.003Z,15.93
2018-02-22T16:09:43.240Z,13.97
2018-02-22T16:12:11.490Z,14.93
2018-02-22T16:14:40.588Z,15.03
2018-02-22T16:17:09.600Z,19.77
2018-02-22T16:19:39.373Z,15.87
2018-02-22T16:22:07.932Z,15.50
2018-02-22T16:24:36.169Z,13.70
2018-02-22T16:27:06.340Z,13.70
2018-02-22T16:29:35.140Z,17.83
2018-02-22T16:32:03.758Z,13.80
2018-02-22T16:34:31.989Z,14.57
2018-02-22T16:37:01.868Z,15.60
2018-02-22T16:39:30.868Z,14.83
2018-02-22T16:41:59.097Z,17.90
2018-02-22T16:44:27.580Z,17.50
2018-02-22T16:46:56.580Z,17.63
2018-02-22T16:49:24.816Z,18.80
2018-02-22T16:51:54.901Z,16.80
2018-02-22T16:54:23.130Z,20.57
2018-02-22T16:56:51.775Z,18.33
2018-02-22T16:59:21.924Z,18.75
2018-02-22T17:01:50.156Z,15.70
2018-02-22T17:04:19.156Z,19.50
2018-02-22T17:06:48.995Z,20.25
2018-02-22T17:09:17.525Z,20.45
2018-02-22T17:11:47.121Z,17.30
2018-02-22T17:14:15.857Z,19.08
2018-02-22T17:16:44.118Z,18.33
2018-02-22T17:19:12.386Z,19.52
2018-02-22T17:21:42.557Z,19.25
2018-02-22T17:24:10.880Z,20.73
2018-02-22T17:26:46.908Z,19.17
2018-02-22T17:29:21.120Z,22.95
2018-02-22T17:31:58.537Z,19.37
2018-02-22T17:34:26.648Z,20.55
2018-02-22T17:36:58.130Z,19.65
2018-02-22T17:39:27.045Z,22.15
2018-02-22T17:41:55.276Z,18.17
2018-02-22T17:44:24.859Z,24.12
2018-02-22T17:46:54.695Z,18.62
2018-02-22T17:49:23.224Z,23.45
2018-02-22T17:51:52.219Z,24.08
2018-02-22T17:54:21.160Z,20.00
2018-02-22T17:56:49.793Z,20.17
2018-02-22T17:59:18.025Z,18.90
2018-02-22T18:01:46.604Z,24.73
2018-02-22T18:04:14.860Z,21.55
2018-02-22T18:06:43.112Z,26.02
2018-02-22T18:09:12.641Z,17.02
2018-02-22T18:11:40.885Z,19.40
2018-02-22T18:14:09.129Z,21.02
2018-02-22T18:16:37.872Z,20.10
2018-02-22T18:19:07.278Z,22.15
2018-02-22T18:21:36.862Z,20.50
2018-02-22T18:24:06.402Z,20.05
2018-02-22T18:26:35.844Z,21.17
2018-02-22T18:29:03.951Z,18.27
2018-02-22T18:31:34.606Z,19.37
2018-02-22T18:34:03.236Z,21.37
2018-02-22T18:36:32.236Z,22.23
2018-02-22T18:39:17.559Z,23.90
2018-02-22T18:41:51.944Z,20.08
2018-02-22T18:44:26.252Z,24.20
2018-02-22T18:46:55.984Z,21.80
2018-02-22T18:49:25.573Z,21.15
2018-02-22T18:51:54.340Z,20.80
2018-02-22T18:54:24.082Z,23.05
2018-02-22T18:56:52.307Z,21.73
2018-02-22T18:59:20.892Z,21.42
2018-02-22T19:01:49.119Z,23.50
2018-02-22T19:04:17.343Z,23.20
2018-02-22T19:06:46.327Z,21.80
2018-02-22T19:09:14.968Z,20.70
2018-02-22T19:11:43.221Z,23.55
2018-02-22T19:14:14.109Z,21.62
2018-02-22T19:16:43.594Z,23.90
2018-02-22T19:19:11.705Z,22.45
2018-02-22T19:21:42.568Z,19.92
2018-02-22T19:24:11.582Z,24.05
2018-02-22T19:26:39.855Z,20.20
2018-02-22T19:29:08.327Z,23.20
2018-02-22T19:31:38.646Z,20.17
2018-02-22T19:34:08.297Z,19.52
2018-02-22T19:36:39.689Z,18.77
2018-02-22T19:39:08.328Z,17.67
2018-02-22T19:41:36.556Z,20.92
2018-02-22T19:44:05.710Z,20.10
2018-02-22T19:46:36.032Z,21.55
2018-02-22T19:49:04.537Z,25.00
2018-02-22T19:51:33.806Z,28.05
2018-02-22T19:54:02.805Z,19.42
2018-02-22T19:56:31.796Z,20.95
2018-02-22T19:59:01.027Z,18.52
2018-02-22T20:01:30.609Z,20.17
2018-02-22T20:03:59.481Z,20.30
2018-02-22T20:06:28.295Z,17.73
2018-02-22T20:08:56.524Z,18.70
2018-02-22T20:11:26.125Z,21.65
2018-02-22T20:13:55.761Z,20.40
2018-02-22T20:16:23.994Z,21.73
2018-02-22T20:18:52.993Z,17.42
2018-02-22T20:21:22.081Z,15.70
2018-02-22T20:23:50.308Z,18.83
2018-02-22T20:26:18.537Z,18.67
2018-02-22T20:28:49.093Z,20.42
2018-02-22T20:31:18.474Z,18.25
2018-02-22T20:33:47.073Z,22.02
2018-02-22T20:36:15.737Z,16.70
2018-02-22T20:38:45.324Z,19.08
2018-02-22T20:41:13.454Z,16.50
2018-02-22T20:43:42.500Z,18.85
2018-02-22T20:46:11.134Z,19.42
2018-02-22T20:48:40.731Z,18.00
2018-02-22T20:51:12.453Z,20.08
2018-02-22T20:53:43.263Z,20.20
2018-02-22T20:56:11.523Z,17.30
2018-02-22T20:58:40.096Z,16.48
2018-02-22T21:01:08.349Z,18.00
2018-02-22T21:03:38.508Z,18.45
2018-02-22T21:06:07.360Z,19.90
2018-02-22T21:08:36.349Z,17.05
2018-02-22T21:11:04.580Z,18.50
2018-02-22T21:13:32.971Z,25.12
2018-02-22T21:16:02.709Z,19.20
2018-02-22T21:18:31.704Z,18.85
2018-02-22T21:21:01.665Z,20.10
2018-02-22T21:23:31.033Z,21.23
2018-02-22T21:25:59.256Z,14.57
2018-02-22T21:28:27.868Z,21.83
2018-02-22T21:30:56.097Z,21.30
2018-02-22T21:33:25.474Z,21.85
2018-02-22T21:35:55.249Z,19.73
2018-02-22T21:38:23.480Z,17.95
2018-02-22T21:40:51.707Z,20.55
2018-02-22T21:43:20.384Z,20.88
2018-02-22T21:45:49.968Z,24.50
2018-02-22T21:48:18.074Z,20.92
2018-02-22T21:50:46.621Z,22.62
2018-02-22T21:53:16.205Z,19.25
2018-02-22T21:55:44.315Z,23.27
2018-02-22T21:58:15.988Z,19.73
2018-02-22T22:00:45.232Z,19.27
2018-02-22T22:03:13.471Z,19.80
2018-02-22T22:08:17.227Z,19.42
2018-02-22T22:10:46.971Z,20.67
2018-02-22T22:13:15.955Z,21.65
2018-02-22T22:15:44.492Z,22.33
2018-02-22T22:18:13.488Z,19.52
2018-02-22T22:20:41.715Z,16.40
2018-02-22T22:23:14.317Z,21.55
2018-02-22T22:25:43.684Z,24.42
2018-02-22T22:28:12.320Z,21.12
2018-02-22T22:30:40.975Z,22.73
2018-02-22T22:33:09.986Z,23.42
2018-02-22T22:35:38.232Z,26.80
2018-02-22T22:38:07.932Z,20.48
2018-02-22T22:40:37.352Z,28.90
2018-02-22T22:43:06.711Z,33.20
2018-02-22T22:45:35.944Z,21.52
2018-02-22T22:48:04.945Z,36.05
2018-02-22T22:50:34.685Z,27.40
2018-02-22T22:53:04.116Z,26.10
2018-02-22T22:55:33.100Z,25.95
2018-02-22T22:58:02.096Z,21.23
2018-02-22T23:00:30.525Z,27.55
2018-02-22T23:02:59.520Z,24.10
2018-02-22T23:05:27.765Z,24.42
2018-02-22T23:07:56.459Z,22.17
2018-02-22T23:10:24.687Z,25.95
2018-02-22T23:12:53.679Z,25.50
2018-02-22T23:15:23.409Z,19.05
2018-02-22T23:17:52.027Z,22.35
2018-02-22T23:20:20.257Z,26.48
2018-02-22T23:22:48.827Z,23.95
2018-02-22T23:25:18.560Z,27.90
2018-02-22T23:27:47.556Z,22.42
2018-02-22T23:30:16.865Z,23.35
2018-02-22T23:32:45.092Z,30.10
2018-02-22T23:35:13.334Z,30.15
2018-02-22T23:37:41.985Z,26.48
2018-02-22T23:43:10.947Z,24.70
2018-02-22T23:45:39.185Z,26.55
2018-02-22T23:48:07.418Z,27.35
2018-02-22T23:50:36.148Z,24.67
2018-02-22T23:53:05.513Z,27.85
2018-02-22T23:55:33.740Z,27.55
2018-02-22T23:58:05.780Z,27.30
